Time;durP1;ratioP1;P1;durP2;ratioP2;P2;SDS_P1;SDS_P2;PMS_P1;PMS_P2;Temp;Humidity;BMP_temperature;BMP_pressure;BME280_temperature;BME280_humidity;BME280_pressure;Samples;Min_cycle;Max_cycle;Signal;HPM_P1;HPM_P2
2023/05/14 00:01:31;;;;;;;27.90;9.90;;;;;;;8.16;67.20;100780.29;110492;1271;22316;-60
2023/05/14 00:04:01;;;;;;;29.00;11.20;;;;;;;8.12;67.30;100776.52;110505;1269;22205;-61
2023/05/14 00:06:32;;;;;;;29.90;10.70;;;;;;;8.08;67.45;100772.11;110501;1270;22334;-61
2023/05/14 00:09:04;;;;;;;28.10;10.50;;;;;;;8.04;67.53;100771.05;110513;1268;22260;-61
2023/05/14 00:11:35;;;;;;;26.70;9.00;;;;;;;8.03;67.63;100769.44;110500;1267;23173;-61
2023/05/14 00:14:06;;;;;;;25.80;9.10;;;;;;;8.03;67.90;100766.44;110539;1274;22294;-62
2023/05/14 00:16:36;;;;;;;21.30;8.50;;;;;;;7.99;68.10;100765.67;110492;1255;22195;-61
2023/05/14 00:19:07;;;;;;;23.60;9.30;;;;;;;7.97;68.28;100763.30;110504;1259;22967;-61
2023/05/14 00:21:38;;;;;;;24.10;9.10;;;;;;;7.96;68.40;100766.41;109443;1267;22765;-61
2023/05/14 00:24:10;;;;;;;24.10;8.20;;;;;;;7.98;68.59;100762.31;106932;1268;22511;-60
2023/05/14 00:26:40;;;;;;;24.50;8.60;;;;;;;7.98;68.87;100760.09;107049;1267;22534;-60
2023/05/14 00:29:11;;;;;;;19.10;7.80;;;;;;;7.97;69.17;100755.75;106730;1274;23015;-59
2023/05/14 00:31:42;;;;;;;23.00;8.40;;;;;;;7.97;69.25;100756.13;106861;1271;24258;-61
2023/05/14 00:34:13;;;;;;;20.60;7.40;;;;;;;8.01;69.69;100755.45;107219;1265;26045;-60
2023/05/14 00:36:44;;;;;;;24.90;9.90;;;;;;;8.05;69.90;100755.95;107167;1271;22527;-60
2023/05/14 00:39:15;;;;;;;22.70;7.30;;;;;;;8.07;70.24;100750.69;107109;1268;23149;-60
2023/05/14 00:41:46;;;;;;;20.50;7.30;;;;;;;8.10;70.42;100751.88;107074;1268;22797;-60
2023/05/14 00:44:16;;;;;;;22.10;8.10;;;;;;;8.13;70.78;100752.56;107131;1274;25414;-61
2023/05/14 00:46:47;;;;;;;21.10;7.80;;;;;;;8.15;70.84;100757.90;107087;1274;22580;-61
2023/05/14 00:49:19;;;;;;;25.50;8.60;;;;;;;8.18;71.13;100762.10;107088;1271;22580;-60
2023/05/14 00:51:51;;;;;;;23.80;9.00;;;;;;;8.21;71.68;100764.22;110509;1270;22177;-61
2023/05/14 00:54:22;;;;;;;27.70;10.60;;;;;;;8.23;71.95;100764.70;110483;1267;22159;-61
2023/05/14 00:56:54;;;;;;;30.70;10.60;;;;;;;8.26;71.94;100761.52;110515;1258;22904;-61
2023/05/14 00:59:25;;;;;;;30.80;11.20;;;;;;;8.30;72.22;100757.50;110511;1274;22197;-60
2023/05/14 01:01:56;;;;;;;29.30;9.90;;;;;;;8.34;72.20;100753.95;110539;1266;23189;-61
2023/05/14 01:04:27;;;;;;;27.60;9.40;;;;;;;8.38;71.98;100755.46;110513;1268;22383;-62
2023/05/14 01:07:09;;;;;;;28.90;9.90;;;;;;;8.43;72.20;100754.30;110485;1265;22187;-61
2023/05/14 01:09:47;;;;;;;26.60;9.20;;;;;;;8.47;72.46;100756.64;110502;1271;23217;-61
2023/05/14 01:12:24;;;;;;;21.80;8.40;;;;;;;8.50;72.39;100752.41;110498;1274;23026;-60
2023/05/14 01:14:59;;;;;;;23.00;8.30;;;;;;;8.53;72.55;100754.43;110515;1266;22159;-60
2023/05/14 01:17:32;;;;;;;26.30;9.20;;;;;;;8.56;72.67;100749.95;110515;1268;23045;-61
2023/05/14 01:20:04;;;;;;;27.10;10.20;;;;;;;8.60;72.89;100751.64;110496;1274;22168;-60
2023/05/14 01:22:35;;;;;;;36.50;15.10;;;;;;;8.61;73.05;100748.71;110520;1268;23053;-61
2023/05/14 01:25:07;;;;;;;39.30;15.20;;;;;;;8.64;73.05;100747.52;110479;1268;22380;-61
2023/05/14 01:27:47;;;;;;;38.70;16.40;;;;;;;8.64;73.23;100742.25;110541;1267;23060;-60
2023/05/14 01:30:23;;;;;;;42.30;16.20;;;;;;;8.67;73.38;100741.27;110517;1260;22854;-61
2023/05/14 01:32:58;;;;;;;38.00;16.50;;;;;;;8.68;73.52;100741.87;110514;1265;22313;-61
2023/05/14 01:35:30;;;;;;;37.70;15.10;;;;;;;8.68;73.37;100741.40;110466;1269;22299;-66
2023/05/14 01:38:04;;;;;;;44.90;16.20;;;;;;;8.67;73.11;100742.33;110522;1264;23092;-61
2023/05/14 01:40:37;;;;;;;39.70;14.60;;;;;;;8.64;72.98;100742.02;110495;1263;22211;-61
2023/05/14 01:43:08;;;;;;;35.10;12.40;;;;;;;8.62;72.84;100743.68;110506;1271;22113;-62
2023/05/14 01:45:39;;;;;;;32.70;12.20;;;;;;;8.59;72.83;100744.52;110475;1260;22391;-60
2023/05/14 01:48:10;;;;;;;33.20;11.90;;;;;;;8.55;72.68;100739.95;110485;1267;22221;-61
2023/05/14 01:50:41;;;;;;;25.60;9.60;;;;;;;8.51;72.65;100737.11;110482;1271;22447;-62
2023/05/14 01:53:12;;;;;;;25.00;9.80;;;;;;;8.48;72.62;100736.96;110510;1274;22219;-60
2023/05/14 01:55:43;;;;;;;26.10;9.20;;;;;;;8.47;72.58;100734.30;110616;1264;22315;-61
2023/05/14 01:58:13;;;;;;;20.00;8.00;;;;;;;8.48;72.55;100728.96;110533;1269;22202;-59
2023/05/14 02:00:44;;;;;;;18.60;7.30;;;;;;;8.47;72.65;100729.54;110451;1270;22306;-61
2023/05/14 02:03:15;;;;;;;20.30;6.50;;;;;;;8.45;72.66;100725.13;110495;1271;23043;-61
2023/05/14 02:05:46;;;;;;;15.90;6.20;;;;;;;8.41;72.74;100728.23;110492;1267;22305;-61
2023/05/14 02:08:17;;;;;;;21.00;6.90;;;;;;;8.38;72.79;100725.02;110528;1274;22154;-61
2023/05/14 02:10:48;;;;;;;20.70;6.00;;;;;;;8.33;72.80;100727.42;110490;1271;23409;-61
2023/05/14 02:13:19;;;;;;;18.10;6.40;;;;;;;8.28;72.79;100730.85;110532;1271;22214;-60
2023/05/14 02:15:50;;;;;;;17.00;5.70;;;;;;;8.23;72.81;100726.94;110487;1269;23020;-60
2023/05/14 02:18:21;;;;;;;16.60;5.70;;;;;;;8.18;72.80;100730.30;110542;1270;23169;-60
2023/05/14 02:20:52;;;;;;;17.90;5.50;;;;;;;8.14;72.81;100724.80;110488;1265;22220;-62
2023/05/14 02:23:23;;;;;;;17.60;6.10;;;;;;;8.09;72.78;100724.58;110518;1274;23108;-61
2023/05/14 02:25:54;;;;;;;20.30;6.10;;;;;;;8.05;72.68;100724.72;110505;1270;22208;-60
2023/05/14 02:28:25;;;;;;;19.20;6.00;;;;;;;8.01;72.77;100723.27;110530;1264;22224;-61
2023/05/14 02:31:01;;;;;;;14.10;4.60;;;;;;;7.98;72.73;100726.80;110532;1262;22251;-62
2023/05/14 02:33:32;;;;;;;16.10;5.80;;;;;;;7.93;72.81;100726.90;110457;1270;22343;-61
2023/05/14 02:36:03;;;;;;;18.70;6.10;;;;;;;7.90;72.70;100728.25;110511;1268;22714;-61
2023/05/14 02:38:34;;;;;;;15.80;5.80;;;;;;;7.90;72.69;100727.08;110474;1265;22509;-60
2023/05/14 02:41:05;;;;;;;13.60;3.80;;;;;;;7.87;72.82;100725.97;110508;1274;22232;-61
2023/05/14 02:43:35;;;;;;;19.10;5.40;;;;;;;7.82;72.88;100720.83;110493;1269;22988;-61
2023/05/14 02:46:06;;;;;;;16.60;6.00;;;;;;;7.79;72.95;100718.23;110514;1271;22127;-61
2023/05/14 02:48:37;;;;;;;15.70;5.20;;;;;;;7.78;73.06;100718.05;110466;1268;22315;-62
2023/05/14 02:51:08;;;;;;;17.50;6.50;;;;;;;7.77;73.24;100717.11;110488;1265;22199;-61
2023/05/14 02:53:39;;;;;;;15.90;5.40;;;;;;;7.77;73.37;100715.29;110514;1267;22359;-62
2023/05/14 02:56:10;;;;;;;18.20;6.10;;;;;;;7.77;73.58;100718.95;110494;1274;22307;-61
2023/05/14 02:58:41;;;;;;;17.50;5.50;;;;;;;7.75;73.66;100714.56;110487;1266;22285;-60
2023/05/14 03:01:12;;;;;;;15.10;5.80;;;;;;;7.76;73.86;100712.22;110516;1260;22174;-59
2023/05/14 03:03:43;;;;;;;15.80;4.70;;;;;;;7.76;73.99;100710.95;108211;1274;25291;-60
2023/05/14 03:06:14;;;;;;;17.20;5.80;;;;;;;7.76;74.06;100713.51;110487;1265;22134;-61
2023/05/14 03:08:45;;;;;;;16.80;5.40;;;;;;;7.75;74.02;100713.77;108803;1268;22504;-61
2023/05/14 03:11:15;;;;;;;18.80;6.20;;;;;;;7.72;74.02;100710.20;106822;1274;22519;-60
2023/05/14 03:13:46;;;;;;;16.60;5.80;;;;;;;7.71;74.03;100710.87;106840;1274;22571;-59
2023/05/14 03:16:17;;;;;;;15.30;5.30;;;;;;;7.70;74.04;100710.27;106841;1274;22641;-59
2023/05/14 03:18:48;;;;;;;16.90;6.40;;;;;;;7.68;73.95;100710.74;106967;1273;22575;-61
2023/05/14 03:21:18;;;;;;;19.00;7.10;;;;;;;7.65;74.09;100709.91;106909;1274;24263;-61
2023/05/14 03:23:49;;;;;;;22.80;7.00;;;;;;;7.60;74.11;100712.52;107010;1268;22599;-62
2023/05/14 03:26:20;;;;;;;18.80;6.50;;;;;;;7.56;74.12;100713.46;106946;1274;25277;-62
2023/05/14 03:28:52;;;;;;;22.70;7.50;;;;;;;7.53;74.25;100717.84;110504;1274;22272;-62
2023/05/14 03:31:23;;;;;;;19.80;7.00;;;;;;;7.50;74.37;100716.27;110498;1269;22389;-61
2023/05/14 03:33:54;;;;;;;20.80;7.40;;;;;;;7.47;74.41;100721.69;110467;1269;22223;-62
2023/05/14 03:36:25;;;;;;;18.50;7.10;;;;;;;7.44;74.46;100725.89;110484;1270;22217;-63
2023/05/14 03:38:56;;;;;;;19.30;7.40;;;;;;;7.43;74.46;100727.05;110489;1265;22368;-60
2023/05/14 03:41:27;;;;;;;20.20;6.90;;;;;;;7.44;74.49;100728.45;110536;1267;22198;-61
2023/05/14 03:43:58;;;;;;;19.20;7.60;;;;;;;7.43;74.54;100722.67;110461;1271;22160;-62
2023/05/14 03:46:29;;;;;;;20.10;7.30;;;;;;;7.44;74.65;100721.14;110482;1268;22099;-61
2023/05/14 03:49:00;;;;;;;20.90;7.20;;;;;;;7.45;74.75;100722.17;110454;1274;22904;-61
2023/05/14 03:51:31;;;;;;;22.90;6.70;;;;;;;7.44;74.86;100723.94;110482;1269;22969;-61
2023/05/14 03:54:03;;;;;;;19.70;6.70;;;;;;;7.45;74.94;100718.59;110478;1268;22390;-61
2023/05/14 03:56:34;;;;;;;22.30;7.60;;;;;;;7.46;75.00;100717.42;110501;1266;22360;-61
2023/05/14 03:59:05;;;;;;;17.50;6.60;;;;;;;7.49;75.21;100718.05;110489;1274;22146;-63
2023/05/14 04:01:35;;;;;;;19.80;7.50;;;;;;;7.52;75.20;100716.13;110485;1270;22935;-59
2023/05/14 04:04:07;;;;;;;20.10;7.70;;;;;;;7.57;75.35;100713.73;110533;1268;22392;-61
2023/05/14 04:06:38;;;;;;;21.10;7.30;;;;;;;7.63;75.68;100712.11;110479;1269;22843;-61
2023/05/14 04:09:09;;;;;;;17.60;7.10;;;;;;;7.67;75.65;100705.54;110523;1271;22293;-61
2023/05/14 04:11:40;;;;;;;20.70;7.70;;;;;;;7.71;75.79;100700.95;110506;1266;23017;-60
2023/05/14 04:14:11;;;;;;;21.00;8.20;;;;;;;7.75;75.78;100702.48;110491;1274;22278;-61
2023/05/14 04:16:42;;;;;;;20.70;7.90;;;;;;;7.81;75.83;100703.46;110526;1270;22153;-60
2023/05/14 04:19:13;;;;;;;28.10;8.60;;;;;;;7.88;75.45;100707.05;110530;1271;22185;-61
2023/05/14 04:21:44;;;;;;;21.80;6.90;;;;;;;7.95;75.58;100704.65;110539;1269;22160;-60
2023/05/14 04:24:14;;;;;;;18.10;7.00;;;;;;;8.03;75.79;100705.17;110478;1262;22327;-60
2023/05/14 04:26:45;;;;;;;20.30;7.80;;;;;;;8.11;76.02;100702.44;110476;1267;23047;-61
2023/05/14 04:29:16;;;;;;;22.40;8.90;;;;;;;8.19;76.24;100703.27;110514;1274;22402;-61
2023/05/14 04:31:48;;;;;;;20.20;8.30;;;;;;;8.26;76.04;100706.42;110473;1271;22133;-61
2023/05/14 04:34:19;;;;;;;19.90;8.10;;;;;;;8.34;75.91;100707.74;110503;1271;23164;-61
2023/05/14 04:36:51;;;;;;;23.60;8.10;;;;;;;8.44;75.96;100714.30;110523;1271;22747;-61
2023/05/14 04:39:21;;;;;;;22.00;9.10;;;;;;;8.54;75.91;100709.09;110444;1268;24114;-62
2023/05/14 04:41:53;;;;;;;22.20;8.50;;;;;;;8.63;76.02;100702.61;109385;1267;22541;-60
2023/05/14 04:44:25;;;;;;;21.50;7.70;;;;;;;8.73;75.96;100694.92;110489;1274;22351;-62
2023/05/14 04:46:56;;;;;;;19.80;7.50;;;;;;;8.85;75.63;100692.55;110499;1271;22839;-62
2023/05/14 04:49:27;;;;;;;21.60;7.80;;;;;;;8.98;75.93;100697.30;110446;1268;22315;-61
2023/05/14 04:51:58;;;;;;;17.60;6.60;;;;;;;9.09;75.91;100692.02;110406;1258;22215;-61
2023/05/14 04:54:28;;;;;;;20.20;7.80;;;;;;;9.21;75.65;100694.95;110444;1267;22675;-61
2023/05/14 04:57:02;;;;;;;20.00;7.60;;;;;;;9.34;75.51;100693.53;110470;1267;22160;-61
2023/05/14 04:59:32;;;;;;;21.80;7.70;;;;;;;9.50;75.28;100690.59;110481;1267;22337;-62
2023/05/14 05:02:03;;;;;;;21.00;7.80;;;;;;;9.64;75.46;100685.55;110462;1260;22309;-61
2023/05/14 05:04:35;;;;;;;21.40;8.00;;;;;;;9.78;75.35;100685.04;110475;1269;22179;-60
2023/05/14 05:07:07;;;;;;;27.00;8.10;;;;;;;9.92;75.19;100680.18;108908;1271;22524;-59
2023/05/14 05:09:38;;;;;;;18.30;8.00;;;;;;;10.05;75.11;100680.64;110515;1270;22391;-62
2023/05/14 05:12:10;;;;;;;18.50;6.50;;;;;;;10.19;75.06;100679.90;110492;1268;22213;-61
2023/05/14 05:14:41;;;;;;;14.50;6.10;;;;;;;10.34;74.52;100684.08;110494;1267;22444;-60
2023/05/14 05:17:12;;;;;;;17.60;6.60;;;;;;;10.49;74.20;100678.38;110407;1267;22948;-62
2023/05/14 05:19:43;;;;;;;16.30;5.10;;;;;;;10.63;73.88;100670.60;110437;1256;22464;-61
2023/05/14 05:22:15;;;;;;;15.30;5.30;;;;;;;10.75;73.68;100670.16;110434;1267;22205;-61
2023/05/14 05:24:46;;;;;;;19.70;6.50;;;;;;;10.88;73.35;100674.84;110470;1260;22195;-62
2023/05/14 05:27:17;;;;;;;18.30;6.80;;;;;;;11.00;73.33;100670.73;110494;1263;22329;-61
2023/05/14 05:29:48;;;;;;;16.30;6.40;;;;;;;11.12;73.12;100670.77;106929;1269;24248;-62
2023/05/14 05:32:19;;;;;;;19.10;6.40;;;;;;;11.24;72.86;100666.77;106690;1259;22580;-61
2023/05/14 05:34:50;;;;;;;18.60;6.10;;;;;;;11.35;72.54;100666.06;106772;1274;22647;-60
2023/05/14 05:37:21;;;;;;;19.80;6.50;;;;;;;11.47;72.55;100666.66;106765;1271;24727;-61
2023/05/14 05:39:52;;;;;;;16.60;6.00;;;;;;;11.58;72.60;100666.66;106856;1272;22520;-61
2023/05/14 05:42:27;;;;;;;17.40;5.40;;;;;;;11.71;72.72;100664.38;106892;1269;24253;-61
2023/05/14 05:44:58;;;;;;;14.10;5.50;;;;;;;11.84;72.41;100663.93;106786;1258;25364;-61
2023/05/14 05:47:30;;;;;;;16.00;5.10;;;;;;;11.96;71.92;100658.28;110488;1269;22331;-61
2023/05/14 05:50:01;;;;;;;17.40;6.20;;;;;;;12.05;71.81;100656.83;110498;1274;23051;-61
2023/05/14 05:52:32;;;;;;;17.60;5.20;;;;;;;12.14;71.69;100661.23;110487;1271;22137;-61
2023/05/14 05:55:03;;;;;;;16.40;5.20;;;;;;;12.24;71.43;100656.27;110499;1271;23167;-61
2023/05/14 05:57:35;;;;;;;13.60;4.70;;;;;;;12.36;71.27;100654.91;110494;1267;22972;-62
2023/05/14 06:00:12;;;;;;;14.90;4.50;;;;;;;12.50;70.90;100654.87;110458;1270;22253;-62
2023/05/14 06:02:43;;;;;;;12.80;4.60;;;;;;;12.62;70.48;100654.98;110472;1263;22417;-62
2023/05/14 06:05:15;;;;;;;14.00;4.20;;;;;;;12.74;70.31;100660.70;107391;1274;22510;-62
2023/05/14 06:07:45;;;;;;;12.80;4.20;;;;;;;12.86;69.96;100662.77;106571;1273;22731;-62
2023/05/14 06:10:17;;;;;;;12.20;4.10;;;;;;;12.96;70.03;100657.89;106521;1259;26650;-62
2023/05/14 06:12:48;;;;;;;16.60;4.90;;;;;;;13.09;69.33;100658.83;110527;1268;22200;-60
2023/05/14 06:15:19;;;;;;;14.60;4.30;;;;;;;13.20;69.05;100653.95;110491;1262;22182;-61
2023/05/14 06:17:50;;;;;;;11.30;3.30;;;;;;;13.30;69.19;100657.67;110507;1261;22928;-62
2023/05/14 06:20:21;;;;;;;10.70;3.20;;;;;;;13.39;68.45;100658.73;110467;1268;22152;-62
2023/05/14 06:22:52;;;;;;;12.60;3.50;;;;;;;13.48;68.80;100654.84;110477;1267;22151;-63
2023/05/14 06:25:23;;;;;;;12.30;4.20;;;;;;;13.58;68.63;100659.49;110473;1267;23579;-63
2023/05/14 06:27:54;;;;;;;17.10;3.90;;;;;;;13.69;68.36;100656.98;110481;1263;22191;-61
2023/05/14 06:30:24;;;;;;;10.10;3.00;;;;;;;13.82;68.13;100659.70;110474;1268;22208;-61
2023/05/14 06:32:55;;;;;;;9.60;3.30;;;;;;;13.93;68.08;100653.20;110488;1267;22148;-61
2023/05/14 06:35:26;;;;;;;12.70;3.60;;;;;;;14.07;67.66;100650.57;110517;1274;22240;-61
2023/05/14 06:37:57;;;;;;;9.60;2.50;;;;;;;14.20;67.47;100649.69;110485;1267;22179;-61
2023/05/14 06:40:28;;;;;;;10.80;2.50;;;;;;;14.35;66.65;100649.02;110479;1268;22251;-61
2023/05/14 06:42:59;;;;;;;9.70;2.40;;;;;;;14.49;66.21;100650.63;110499;1269;22153;-63
2023/05/14 06:45:29;;;;;;;9.90;2.40;;;;;;;14.63;66.16;100650.76;110433;1265;22208;-62
2023/05/14 06:48:00;;;;;;;10.10;2.60;;;;;;;14.78;66.03;100647.55;110425;1268;22339;-63
2023/05/14 06:50:31;;;;;;;10.50;2.50;;;;;;;14.91;65.18;100640.78;110483;1267;22370;-63
2023/05/14 06:53:03;;;;;;;9.20;2.90;;;;;;;15.05;65.11;100642.83;110500;1267;23394;-62
2023/05/14 06:55:33;;;;;;;9.70;2.80;;;;;;;15.18;65.21;100640.81;110383;1257;22350;-61
2023/05/14 06:58:06;;;;;;;9.20;2.80;;;;;;;15.31;64.96;100633.22;109302;1268;22527;-59
2023/05/14 07:00:37;;;;;;;8.00;2.00;;;;;;;15.44;64.03;100622.63;106614;1267;24737;-60
2023/05/14 07:03:07;;;;;;;7.80;1.80;;;;;;;15.55;63.25;100618.50;106617;1268;22550;-62
2023/05/14 07:05:39;;;;;;;6.20;1.60;;;;;;;15.68;62.94;100611.45;106436;1272;22689;-61
2023/05/14 07:08:10;;;;;;;6.60;1.40;;;;;;;15.77;62.19;100606.00;106508;1274;26447;-62
2023/05/14 07:10:41;;;;;;;5.20;1.50;;;;;;;15.83;61.75;100607.63;106460;1268;22529;-61
2023/05/14 07:13:12;;;;;;;6.50;1.10;;;;;;;15.92;61.15;100605.49;106565;1271;25289;-62
2023/05/14 07:15:43;;;;;;;5.00;1.10;;;;;;;16.00;61.23;100603.88;110411;1269;22344;-62
2023/05/14 07:18:14;;;;;;;3.80;1.30;;;;;;;16.11;60.53;100598.28;110407;1270;22135;-62
2023/05/14 07:20:45;;;;;;;5.90;1.00;;;;;;;16.18;59.54;100597.67;110465;1267;22326;-62
2023/05/14 07:23:16;;;;;;;5.70;1.00;;;;;;;16.27;59.60;100600.46;110494;1267;22138;-62
2023/05/14 07:25:47;;;;;;;5.00;1.00;;;;;;;16.35;58.88;100596.92;107251;1263;24211;-62
2023/05/14 07:28:18;;;;;;;4.30;0.90;;;;;;;16.44;58.72;100598.38;106473;1267;22529;-62
2023/05/14 07:30:49;;;;;;;3.60;0.90;;;;;;;16.50;57.80;100594.63;106501;1272;22520;-62
2023/05/14 07:33:20;;;;;;;5.10;0.90;;;;;;;16.50;57.75;100596.46;106575;1273;24338;-62
2023/05/14 07:35:51;;;;;;;2.50;0.70;;;;;;;16.52;57.14;100596.98;106470;1257;22700;-62
2023/05/14 07:38:22;;;;;;;4.80;0.90;;;;;;;16.56;57.33;100594.83;110468;1267;22306;-63
2023/05/14 07:40:54;;;;;;;5.50;1.20;;;;;;;16.62;57.20;100590.79;110461;1267;22313;-62
2023/05/14 07:43:24;;;;;;;2.70;0.80;;;;;;;16.66;56.13;100592.47;110413;1267;22309;-63
2023/05/14 07:45:55;;;;;;;2.50;0.60;;;;;;;16.65;55.81;100588.42;110436;1267;22371;-62
2023/05/14 07:48:26;;;;;;;3.30;0.60;;;;;;;16.66;55.76;100593.40;110404;1267;22346;-61
2023/05/14 07:50:57;;;;;;;3.30;0.80;;;;;;;16.73;55.64;100585.50;110429;1260;22149;-61
2023/05/14 07:53:28;;;;;;;1.80;0.60;;;;;;;16.81;55.36;100586.27;110449;1261;23074;-61
2023/05/14 07:55:59;;;;;;;2.20;0.70;;;;;;;16.89;54.62;100582.91;110446;1267;23158;-61
2023/05/14 07:58:30;;;;;;;2.40;0.70;;;;;;;16.97;54.46;100580.50;110392;1267;22296;-61
2023/05/14 08:01:05;;;;;;;4.00;0.70;;;;;;;17.04;54.72;100581.52;110456;1259;22256;-61
2023/05/14 08:03:37;;;;;;;3.00;0.90;;;;;;;17.13;54.14;100584.52;110450;1270;23046;-61
2023/05/14 08:06:08;;;;;;;6.80;1.30;;;;;;;17.17;53.37;100573.23;110417;1261;22838;-61
2023/05/14 08:08:39;;;;;;;4.50;1.00;;;;;;;17.16;52.90;100573.59;110468;1260;22303;-61
2023/05/14 08:11:10;;;;;;;3.70;0.80;;;;;;;17.15;52.87;100574.21;110432;1267;22544;-61
2023/05/14 08:13:41;;;;;;;5.30;1.10;;;;;;;17.19;53.19;100573.33;110458;1264;22403;-61
2023/05/14 08:16:12;;;;;;;6.70;1.10;;;;;;;17.28;53.03;100566.12;110406;1264;22309;-61
2023/05/14 08:18:43;;;;;;;14.40;4.00;;;;;;;17.32;52.40;100559.48;110404;1267;22412;-61
2023/05/14 08:21:13;;;;;;;29.90;11.90;;;;;;;17.36;51.54;100565.59;110445;1265;22937;-61
2023/05/14 08:23:44;;;;;;;19.70;6.50;;;;;;;17.37;51.54;100566.20;110454;1265;22337;-61
2023/05/14 08:26:15;;;;;;;46.00;16.70;;;;;;;17.40;51.53;100563.05;110451;1270;22243;-61
2023/05/14 08:28:46;;;;;;;19.60;5.80;;;;;;;17.45;51.18;100560.20;110466;1267;23079;-61
2023/05/14 08:31:17;;;;;;;11.00;2.70;;;;;;;17.50;51.07;100558.73;110443;1267;23329;-61
2023/05/14 08:33:48;;;;;;;4.70;0.90;;;;;;;17.58;50.85;100556.54;110419;1264;22475;-61
2023/05/14 08:36:18;;;;;;;6.20;1.30;;;;;;;17.69;50.85;100560.33;106790;1273;22650;-58
2023/05/14 08:38:49;;;;;;;3.90;1.00;;;;;;;17.81;50.61;100558.02;106679;1273;22567;-61
2023/05/14 08:41:21;;;;;;;4.80;0.60;;;;;;;17.92;50.24;100550.71;106762;1273;22566;-60
2023/05/14 08:44:04;;;;;;;6.20;1.10;;;;;;;18.03;49.95;100545.72;106864;1267;22527;-59
2023/05/14 08:46:36;;;;;;;3.60;0.70;;;;;;;18.10;50.02;100544.13;106578;1273;22533;-60
2023/05/14 08:49:16;;;;;;;4.50;0.80;;;;;;;18.19;49.31;100540.56;106727;1273;25422;-60
2023/05/14 08:51:48;;;;;;;4.50;0.90;;;;;;;18.25;49.46;100540.52;106860;1257;22567;-59
2023/05/14 08:54:21;;;;;;;4.60;0.70;;;;;;;18.32;49.40;100536.67;106624;1256;25313;-59
2023/05/14 08:56:53;;;;;;;4.50;0.90;;;;;;;18.39;49.25;100535.85;106610;1259;24368;-60
2023/05/14 08:59:24;;;;;;;3.10;0.80;;;;;;;18.47;49.18;100536.02;106639;1273;26526;-60
2023/05/14 09:01:58;;;;;;;3.10;0.80;;;;;;;18.60;48.96;100531.44;106699;1273;22638;-61
2023/05/14 09:04:29;;;;;;;3.30;0.60;;;;;;;18.72;48.31;100530.74;106697;1267;24154;-60
2023/05/14 09:07:02;;;;;;;2.70;0.60;;;;;;;18.83;47.92;100523.40;106666;1251;22761;-60
2023/05/14 09:09:34;;;;;;;2.80;0.60;;;;;;;18.94;48.06;100521.13;106914;1257;22537;-59
2023/05/14 09:12:06;;;;;;;2.60;0.40;;;;;;;19.03;47.97;100516.75;106621;1267;22522;-58
2023/05/14 09:14:37;;;;;;;3.50;0.80;;;;;;;19.11;47.47;100516.35;106693;1261;23131;-61
2023/05/14 09:17:11;;;;;;;11.20;0.80;;;;;;;19.20;47.55;100519.65;106711;1274;24089;-59
2023/05/14 09:19:42;;;;;;;2.40;0.70;;;;;;;19.30;47.25;100513.81;107038;1263;24347;-60
2023/05/14 09:22:16;;;;;;;2.70;0.60;;;;;;;19.37;47.04;100512.89;106625;1267;22519;-60
2023/05/14 09:25:01;;;;;;;2.60;0.70;;;;;;;19.31;46.47;100508.77;106829;1258;24258;-60
2023/05/14 09:27:34;;;;;;;3.50;0.70;;;;;;;19.23;46.58;100504.93;106737;1273;24282;-60
2023/05/14 09:30:13;;;;;;;2.70;0.60;;;;;;;19.19;46.44;100503.30;106706;1273;25375;-59
2023/05/14 09:32:47;;;;;;;3.40;0.60;;;;;;;19.13;46.11;100502.70;106647;1260;22618;-59
2023/05/14 09:35:20;;;;;;;5.30;0.50;;;;;;;19.07;46.15;100498.34;106687;1257;25331;-60
2023/05/14 09:37:52;;;;;;;2.50;0.50;;;;;;;19.03;45.82;100493.39;107324;1267;24239;-60
2023/05/14 09:40:24;;;;;;;1.40;0.50;;;;;;;19.07;46.18;100479.10;106500;1264;24388;-60
2023/05/14 09:42:56;;;;;;;2.60;0.50;;;;;;;19.20;45.90;100478.84;106674;1260;22525;-60
2023/05/14 09:45:27;;;;;;;2.10;0.50;;;;;;;19.28;45.13;100476.36;106766;1254;24279;-59
2023/05/14 09:48:01;;;;;;;1.90;0.50;;;;;;;19.28;44.71;100473.11;106572;1273;22596;-60
2023/05/14 09:50:32;;;;;;;2.50;0.60;;;;;;;19.27;44.41;100469.84;106788;1273;22648;-59
2023/05/14 09:53:03;;;;;;;2.80;0.70;;;;;;;19.26;44.59;100461.52;106887;1273;25329;-63
2023/05/14 09:55:35;;;;;;;4.40;0.80;;;;;;;19.29;44.19;100458.39;106807;1270;22677;-61
2023/05/14 09:58:06;;;;;;;3.30;0.60;;;;;;;19.27;43.56;100461.23;106893;1261;24232;-60
2023/05/14 10:00:38;;;;;;;1.70;0.50;;;;;;;19.18;43.71;100459.39;106742;1271;22514;-59
2023/05/14 10:03:12;;;;;;;2.20;0.60;;;;;;;19.23;43.99;100461.56;106587;1270;22524;-58
2023/05/14 10:05:44;;;;;;;2.70;0.50;;;;;;;19.34;43.92;100455.36;106588;1268;25250;-61
2023/05/14 10:08:22;;;;;;;2.20;0.50;;;;;;;19.48;43.76;100450.60;106565;1267;22519;-59
2023/05/14 10:10:54;;;;;;;1.70;0.50;;;;;;;19.58;43.55;100446.45;106949;1260;22525;-58
2023/05/14 10:13:31;;;;;;;2.10;0.50;;;;;;;19.66;43.49;100442.61;106628;1267;22600;-60
2023/05/14 10:16:08;;;;;;;1.50;0.50;;;;;;;19.77;43.23;100436.48;106583;1272;25457;-61
2023/05/14 10:18:45;;;;;;;1.60;0.40;;;;;;;19.81;43.37;100439.66;106565;1259;23148;-60
2023/05/14 10:21:19;;;;;;;2.80;0.50;;;;;;;19.89;42.97;100445.72;106743;1273;22622;-61
2023/05/14 10:23:52;;;;;;;1.80;0.60;;;;;;;19.94;42.86;100442.48;106907;1267;22686;-60
2023/05/14 10:26:23;;;;;;;2.40;0.70;;;;;;;19.93;42.58;100444.09;106498;1274;25394;-60
2023/05/14 10:28:55;;;;;;;3.00;0.60;;;;;;;19.87;42.53;100436.33;106608;1267;22556;-61
2023/05/14 10:31:47;;;;;;;3.60;0.60;;;;;;;19.83;42.70;100437.45;106601;1266;25546;-61
2023/05/14 10:34:42;;;;;;;3.70;0.60;;;;;;;19.82;42.55;100432.30;106625;1267;25506;-60
2023/05/14 10:37:16;;;;;;;5.30;0.50;;;;;;;19.77;42.27;100424.27;106243;1267;24219;-62
2023/05/14 10:39:49;;;;;;;2.10;0.70;;;;;;;19.70;42.44;100418.10;106406;1279;22583;-60
2023/05/14 10:42:21;;;;;;;2.70;0.60;;;;;;;19.66;42.22;100413.38;106151;1267;22578;-61
2023/05/14 10:44:57;;;;;;;5.10;0.60;;;;;;;19.62;42.09;100408.69;106263;1274;25615;-62
2023/05/14 10:47:29;;;;;;;5.30;0.80;;;;;;;19.58;42.47;100411.27;106086;1279;22544;-60
2023/05/14 10:50:03;;;;;;;4.30;0.90;;;;;;;19.63;42.51;100403.89;106130;1277;22649;-60
2023/05/14 10:52:35;;;;;;;2.40;0.60;;;;;;;19.70;42.04;100403.52;106208;1274;23765;-60
2023/05/14 10:55:08;;;;;;;4.60;0.60;;;;;;;19.74;41.90;100403.52;106277;1278;24523;-61
2023/05/14 10:57:42;;;;;;;2.40;0.80;;;;;;;19.79;41.90;100399.77;106073;1264;26650;-61
2023/05/14 11:00:16;;;;;;;4.60;0.80;;;;;;;19.87;42.13;100398.66;105988;1264;22734;-60
2023/05/14 11:02:47;;;;;;;5.90;0.80;;;;;;;19.93;41.94;100397.53;106236;1273;22573;-65
2023/05/14 11:05:18;;;;;;;1.60;0.60;;;;;;;19.99;41.66;100397.84;106131;1273;23120;-60
2023/05/14 11:07:50;;;;;;;2.40;0.60;;;;;;;20.03;41.34;100392.21;106108;1264;22651;-60
2023/05/14 11:10:24;;;;;;;3.00;0.60;;;;;;;20.05;41.10;100389.90;106157;1273;25264;-60
2023/05/14 11:12:56;;;;;;;3.80;0.60;;;;;;;20.07;41.19;100384.05;106225;1276;24751;-60
2023/05/14 11:15:28;;;;;;;2.10;0.60;;;;;;;20.16;41.42;100384.00;106503;1259;25469;-60
2023/05/14 11:17:59;;;;;;;2.10;0.60;;;;;;;20.30;41.56;100381.61;106655;1259;25470;-60
2023/05/14 11:20:31;;;;;;;2.60;0.70;;;;;;;20.49;41.49;100381.10;106582;1267;22533;-60
2023/05/14 11:23:02;;;;;;;5.20;0.90;;;;;;;20.64;41.29;100375.54;106883;1251;24265;-61
2023/05/14 11:25:33;;;;;;;3.40;0.70;;;;;;;20.79;41.43;100375.11;106719;1267;25405;-61
2023/05/14 11:28:04;;;;;;;2.20;0.70;;;;;;;20.92;40.94;100376.86;106711;1266;24256;-64
2023/05/14 11:30:38;;;;;;;3.60;0.70;;;;;;;20.98;40.88;100376.49;106700;1264;24356;-61
2023/05/14 11:33:09;;;;;;;4.90;0.60;;;;;;;21.02;40.09;100372.56;106592;1273;22556;-60
2023/05/14 11:35:49;;;;;;;2.50;0.70;;;;;;;20.91;39.62;100368.70;106463;1267;22912;-62